Anchor Point, AK (99556)

8:31 PM AKST on February 24, 2017 (GMT -0900)
Wilderness Greenhouse | | Change Station

Elev 335 ft 59.72 °N, 151.72 °W | Updated 2 minutes ago

Clear
Clear
33.8 °F
Feels Like 34 °F
N
1.0
Wind Variable Wind from West

Today
High -- | Low -- °F
--% Chance of Precip.
Yesterday
High -- | Low -- °F
Precip. -- in
Pressure 30.46 in
Visibility 10.0 miles
Clouds Clear
Windchill 34 °F
Dew Point 27 °F
Humidity 78%
Rainfall 0.70 in
Snow Depth Not available.
8:18 AM 6:23 PM
Waning Crescent, 2% visible
METAR PAHO 250453Z 27010G16KT 10SM CLR 04/M02 A3045 RMK AO2 SLP313 T00391022
Pressure 30.46 in
Visibility 10.0 miles
Clouds Clear
Windchill 34 °F
Dew Point 27 °F
Humidity 78%
Rainfall 0.70 in
Snow Depth Not available.
8:18 AM 6:23 PM
Waning Crescent, 2% visible
METAR PAHO 250453Z 27010G16KT 10SM CLR 04/M02 A3045 RMK AO2 SLP313 T00391022

Get Your Daily Forecast Email!

Thanks for signing up!

Be on the lookout for a verification email in your inbox.

You'll start receiving the daily forecast at 8 AM.

×

10-Day Weather Forecast

Almanac

Astronomy

Feb. 24, 2017 Rise Set
Actual Time
Civil Twilight
Nautical Twilight
Astronomical Twilight
Moon
Length of Visible Light
Length of Day
Tomorrow will be .
, % of the Moon is Illuminated

Today's Extremes

State Highs State Lows

Community

WunderPhotos

Upload Photos

1,962,540 photos uploaded!

WunderBlog® & News

Nearby

Air Quality

  Air Quality AQ Index Pollutant
Not available.

Snow Depth

Station Depth Elevation

Earthquake Activity

City Distance Mag. Time & Date
Minimum magnitude displayed is 2.5.

Coastal Water Temperatures

Place Temperature

Stations

Nearby Weather Stations

Station Location Temp. Windchill Dew Point Humidity Wind Precip. Elev Updated Type
                   

Watches & Warnings

There are currently no watches in effect.